createdAt,value
2019-01-17T00:00:24.983Z,984.32
2019-01-17T00:01:25.041Z,984.41
2019-01-17T00:02:24.991Z,984.43
2019-01-17T00:03:24.966Z,984.44
2019-01-17T00:04:24.951Z,984.49
2019-01-17T00:05:24.948Z,984.42
2019-01-17T00:06:24.937Z,984.48
2019-01-17T00:07:25.000Z,984.49
2019-01-17T00:08:24.945Z,984.41
2019-01-17T00:09:24.890Z,984.44
2019-01-17T00:10:24.878Z,984.52
2019-01-17T00:11:24.899Z,984.64
2019-01-17T00:12:24.855Z,984.57
2019-01-17T00:13:24.873Z,984.49
2019-01-17T00:14:24.861Z,984.60
2019-01-17T00:15:24.824Z,984.56
2019-01-17T00:16:24.815Z,984.65
2019-01-17T00:17:24.857Z,984.64
2019-01-17T00:18:24.799Z,984.64
2019-01-17T00:19:24.785Z,984.57
2019-01-17T00:20:24.784Z,984.66
2019-01-17T00:21:24.779Z,984.62
2019-01-17T00:22:24.777Z,984.60
2019-01-17T00:23:24.760Z,984.72
2019-01-17T00:24:24.742Z,984.77
2019-01-17T00:25:24.715Z,984.78
2019-01-17T00:26:24.710Z,984.81
2019-01-17T00:27:24.907Z,984.81
2019-01-17T00:28:24.686Z,984.75
2019-01-17T00:29:24.674Z,984.80
2019-01-17T00:30:24.717Z,984.78
2019-01-17T00:31:24.690Z,984.84
2019-01-17T00:32:24.663Z,984.86
2019-01-17T00:33:24.667Z,984.82
2019-01-17T00:34:24.624Z,984.88
2019-01-17T00:35:24.621Z,984.88
2019-01-17T00:36:24.650Z,984.92
2019-01-17T00:37:24.593Z,984.93
2019-01-17T00:38:24.600Z,985.01
2019-01-17T00:39:24.567Z,984.83
2019-01-17T00:40:24.586Z,984.80
2019-01-17T00:41:24.606Z,984.85
2019-01-17T00:42:24.537Z,984.78
2019-01-17T00:43:24.551Z,984.76
2019-01-17T00:44:24.523Z,984.85
2019-01-17T00:45:24.531Z,984.79
2019-01-17T00:46:24.528Z,984.85
2019-01-17T00:47:24.490Z,984.90
2019-01-17T00:48:24.494Z,984.72
2019-01-17T00:49:24.464Z,984.88
2019-01-17T00:50:24.461Z,984.89
2019-01-17T00:51:24.462Z,984.90
2019-01-17T00:52:24.435Z,984.89
2019-01-17T00:53:24.499Z,984.85
2019-01-17T00:54:24.969Z,984.84
2019-01-17T00:55:30.451Z,984.84
2019-01-17T00:56:30.471Z,984.79
2019-01-17T00:57:26.317Z,984.88
2019-01-17T00:58:28.205Z,984.85
2019-01-17T00:59:25.921Z,984.81
2019-01-17T01:00:25.016Z,984.79
2019-01-17T01:01:29.938Z,984.85
2019-01-17T01:02:25.129Z,984.89
2019-01-17T01:03:29.842Z,984.82
2019-01-17T01:04:27.617Z,984.81
2019-01-17T01:05:26.405Z,984.86
2019-01-17T01:06:26.590Z,984.80
2019-01-17T01:07:26.396Z,984.76
2019-01-17T01:08:24.655Z,984.72
2019-01-17T01:09:26.789Z,984.73
2019-01-17T01:10:25.993Z,984.62
2019-01-17T01:11:24.681Z,984.63
2019-01-17T01:12:45.193Z,984.65
2019-01-17T01:13:25.527Z,984.65
2019-01-17T01:14:28.702Z,984.70
2019-01-17T01:15:25.838Z,984.69
2019-01-17T01:16:25.240Z,984.67
2019-01-17T01:17:26.051Z,984.74
2019-01-17T01:18:29.850Z,984.71
2019-01-17T01:19:42.140Z,984.73
2019-01-17T01:20:24.952Z,984.74
2019-01-17T01:21:24.869Z,984.72
2019-01-17T01:22:26.007Z,984.75
2019-01-17T01:23:25.787Z,984.73
2019-01-17T01:24:27.587Z,984.77
2019-01-17T01:25:34.300Z,984.69
2019-01-17T01:26:31.647Z,984.71
2019-01-17T01:27:25.483Z,984.68
2019-01-17T01:28:24.650Z,984.75
2019-01-17T01:29:25.729Z,984.78
2019-01-17T01:30:34.970Z,984.76
2019-01-17T01:31:26.052Z,984.74
2019-01-17T01:32:25.954Z,984.75
2019-01-17T01:33:26.177Z,984.79
2019-01-17T01:34:24.602Z,984.86
2019-01-17T01:35:27.322Z,984.78
2019-01-17T01:36:26.403Z,984.80
2019-01-17T01:37:24.454Z,984.81
2019-01-17T01:38:26.405Z,984.80
2019-01-17T01:39:24.791Z,984.77
2019-01-17T01:40:26.117Z,984.69
2019-01-17T01:41:25.714Z,984.79
2019-01-17T01:42:25.967Z,984.75
2019-01-17T01:43:41.137Z,984.73
2019-01-17T01:44:25.733Z,984.72
2019-01-17T01:45:24.408Z,984.74
2019-01-17T01:46:24.630Z,984.73
2019-01-17T01:47:27.269Z,984.75
2019-01-17T01:48:24.745Z,984.74
2019-01-17T01:49:24.673Z,984.72
2019-01-17T01:50:27.112Z,984.69
2019-01-17T01:51:24.474Z,984.70
2019-01-17T01:52:26.048Z,984.69
2019-01-17T01:53:28.410Z,984.74
2019-01-17T01:54:24.345Z,984.73
2019-01-17T01:55:24.601Z,984.65
2019-01-17T01:56:24.339Z,984.61
2019-01-17T01:57:25.745Z,984.66
2019-01-17T01:58:25.874Z,984.67
2019-01-17T01:59:25.995Z,984.65
2019-01-17T02:00:25.340Z,984.67
2019-01-17T02:01:25.447Z,984.65
2019-01-17T02:02:24.246Z,984.58
2019-01-17T02:03:25.776Z,984.65
2019-01-17T02:04:24.549Z,984.67
2019-01-17T02:05:32.453Z,984.67
2019-01-17T02:06:25.280Z,984.69
2019-01-17T02:07:24.280Z,984.71
2019-01-17T02:08:27.527Z,984.75
2019-01-17T02:09:26.373Z,984.69
2019-01-17T02:10:24.909Z,984.68
2019-01-17T02:11:25.158Z,984.61
2019-01-17T02:12:26.188Z,984.65
2019-01-17T02:13:47.674Z,984.69
2019-01-17T02:14:27.705Z,984.62
2019-01-17T02:15:25.310Z,984.67
2019-01-17T02:16:23.915Z,984.69
2019-01-17T02:17:24.143Z,984.66
2019-01-17T02:18:26.526Z,984.64
2019-01-17T02:19:24.057Z,984.58
2019-01-17T02:20:39.012Z,984.66
2019-01-17T02:21:25.299Z,984.64
2019-01-17T02:22:24.089Z,984.60
2019-01-17T02:23:25.428Z,984.60
2019-01-17T02:24:28.506Z,984.66
2019-01-17T02:25:25.002Z,984.61
2019-01-17T02:26:24.048Z,984.65
2019-01-17T02:27:30.765Z,984.59
2019-01-17T02:28:25.887Z,984.64
2019-01-17T02:29:23.749Z,984.72
2019-01-17T02:30:25.153Z,984.70
2019-01-17T02:31:25.072Z,984.64
2019-01-17T02:32:24.136Z,984.63
2019-01-17T02:33:27.935Z,984.60
2019-01-17T02:34:25.412Z,984.53
2019-01-17T02:35:40.351Z,984.57
2019-01-17T02:36:24.177Z,984.57
2019-01-17T02:37:25.117Z,984.57
2019-01-17T02:38:24.694Z,984.52
2019-01-17T02:39:24.810Z,984.51
2019-01-17T02:40:25.112Z,984.41
2019-01-17T02:41:24.647Z,984.47
2019-01-17T02:42:24.819Z,984.42
2019-01-17T02:43:24.648Z,984.46
2019-01-17T02:44:29.950Z,984.40
2019-01-17T02:45:24.325Z,984.43
2019-01-17T02:46:24.448Z,984.41
2019-01-17T02:47:23.882Z,984.45
2019-01-17T02:48:24.897Z,984.42
2019-01-17T02:49:29.577Z,984.44
2019-01-17T02:50:23.646Z,984.43
2019-01-17T02:51:25.049Z,984.38
2019-01-17T02:52:24.913Z,984.38
2019-01-17T02:53:24.793Z,984.36
2019-01-17T02:54:35.559Z,984.36
2019-01-17T02:55:26.344Z,984.31
2019-01-17T02:56:23.892Z,984.38
2019-01-17T02:57:25.498Z,984.24
2019-01-17T02:58:24.645Z,984.29
2019-01-17T02:59:25.039Z,984.23
2019-01-17T03:00:25.457Z,984.25
2019-01-17T03:01:25.175Z,984.14
2019-01-17T03:02:26.804Z,984.25
2019-01-17T03:03:24.771Z,984.16
2019-01-17T03:04:24.871Z,984.19
2019-01-17T03:05:26.413Z,984.20
2019-01-17T03:06:24.672Z,984.18
2019-01-17T03:07:39.637Z,984.16
2019-01-17T03:08:34.627Z,984.09
2019-01-17T03:09:36.230Z,984.13
2019-01-17T03:10:24.237Z,984.18
2019-01-17T03:11:23.434Z,984.09
2019-01-17T03:12:24.324Z,984.10
2019-01-17T03:13:24.323Z,984.08
2019-01-17T03:14:25.467Z,984.04
2019-01-17T03:15:24.640Z,983.98
2019-01-17T03:16:23.538Z,983.98
2019-01-17T03:17:24.356Z,983.95
2019-01-17T03:18:24.307Z,983.92
2019-01-17T03:19:25.038Z,983.94
2019-01-17T03:20:25.815Z,983.95
2019-01-17T03:21:26.337Z,983.98
2019-01-17T03:22:23.565Z,983.98
2019-01-17T03:23:23.241Z,983.92
2019-01-17T03:24:24.604Z,983.98
2019-01-17T03:25:23.693Z,983.90
2019-01-17T03:26:34.483Z,983.93
2019-01-17T03:27:26.269Z,983.81
2019-01-17T03:28:23.512Z,983.88
2019-01-17T03:29:26.555Z,983.83
2019-01-17T03:30:24.449Z,983.93
2019-01-17T03:31:23.668Z,983.76
2019-01-17T03:32:25.017Z,983.83
2019-01-17T03:33:23.440Z,983.77
2019-01-17T03:34:26.756Z,983.70
2019-01-17T03:35:23.421Z,983.72
2019-01-17T03:36:24.280Z,983.68
2019-01-17T03:37:24.347Z,983.65
2019-01-17T03:38:23.452Z,983.70
2019-01-17T03:39:25.287Z,983.66
2019-01-17T03:40:24.428Z,983.67
2019-01-17T03:41:35.221Z,983.72
2019-01-17T03:42:24.431Z,983.74
2019-01-17T03:43:24.336Z,983.70
2019-01-17T03:44:24.446Z,983.67
2019-01-17T03:45:36.123Z,983.58
2019-01-17T03:46:25.805Z,983.68
2019-01-17T03:47:23.385Z,983.69
2019-01-17T03:48:23.862Z,983.62
2019-01-17T03:49:23.267Z,983.62
2019-01-17T03:50:25.303Z,983.56
2019-01-17T03:51:24.515Z,983.48
2019-01-17T03:52:24.194Z,983.46
2019-01-17T03:53:23.994Z,983.50
2019-01-17T03:54:23.306Z,983.43
2019-01-17T03:55:26.150Z,983.42
2019-01-17T03:56:23.121Z,983.47
2019-01-17T03:57:23.878Z,983.40
2019-01-17T03:58:23.162Z,983.42
2019-01-17T03:59:24.139Z,983.45
2019-01-17T04:00:23.940Z,983.35
2019-01-17T04:01:22.984Z,983.35
2019-01-17T04:02:24.006Z,983.30
2019-01-17T04:03:24.035Z,983.32
2019-01-17T04:04:25.744Z,983.28
2019-01-17T04:05:24.973Z,983.29
2019-01-17T04:06:24.341Z,983.23
2019-01-17T04:07:24.196Z,983.21
2019-01-17T04:08:24.115Z,983.20
2019-01-17T04:09:30.867Z,983.11
2019-01-17T04:10:24.437Z,983.17
2019-01-17T04:11:22.810Z,983.15
2019-01-17T04:12:24.149Z,983.04
2019-01-17T04:13:23.025Z,983.06
2019-01-17T04:14:26.916Z,983.12
2019-01-17T04:15:24.620Z,983.07
2019-01-17T04:16:24.013Z,983.02
2019-01-17T04:17:24.164Z,983.02
2019-01-17T04:18:25.738Z,983.00
2019-01-17T04:19:24.184Z,982.97
2019-01-17T04:20:26.850Z,983.00
2019-01-17T04:21:22.777Z,982.99
2019-01-17T04:22:23.797Z,982.97
2019-01-17T04:23:28.819Z,982.99
2019-01-17T04:24:24.025Z,982.93
2019-01-17T04:25:23.106Z,982.94
2019-01-17T04:26:24.953Z,982.90
2019-01-17T04:27:22.734Z,982.89
2019-01-17T04:28:26.017Z,982.86
2019-01-17T04:29:22.929Z,982.89
2019-01-17T04:30:23.962Z,982.92
2019-01-17T04:31:25.734Z,982.91
2019-01-17T04:32:22.638Z,982.90
2019-01-17T04:33:30.894Z,982.90
2019-01-17T04:34:23.152Z,982.85
2019-01-17T04:35:22.755Z,982.76
2019-01-17T04:36:33.942Z,982.71
2019-01-17T04:37:28.822Z,982.74
2019-01-17T04:38:23.805Z,982.65
2019-01-17T04:39:22.790Z,982.66
2019-01-17T04:40:40.000Z,982.64
2019-01-17T04:41:37.652Z,982.59
2019-01-17T04:42:22.728Z,982.56
2019-01-17T04:43:25.534Z,982.57
2019-01-17T04:44:22.981Z,982.49
2019-01-17T04:45:23.957Z,982.49
2019-01-17T04:46:24.793Z,982.42
2019-01-17T04:47:24.385Z,982.46
2019-01-17T04:48:24.215Z,982.46
2019-01-17T04:49:23.573Z,982.46
2019-01-17T04:50:22.967Z,982.48
2019-01-17T04:51:26.724Z,982.45
2019-01-17T04:52:24.042Z,982.45
2019-01-17T04:53:22.990Z,982.48
2019-01-17T04:54:25.360Z,982.52
2019-01-17T04:55:22.216Z,982.47
2019-01-17T04:56:25.741Z,982.50
2019-01-17T04:57:21.986Z,982.48
2019-01-17T04:58:28.320Z,982.47
2019-01-17T04:59:24.376Z,982.46
2019-01-17T05:00:33.793Z,982.50
2019-01-17T05:01:24.801Z,982.46
2019-01-17T05:02:34.009Z,982.44
2019-01-17T05:03:23.008Z,982.47
2019-01-17T05:04:23.171Z,982.50
2019-01-17T05:05:27.375Z,982.49
2019-01-17T05:06:26.777Z,982.45
2019-01-17T05:07:29.280Z,982.41
2019-01-17T05:08:29.745Z,982.44
2019-01-17T05:10:36.421Z,982.45
2019-01-17T05:11:39.704Z,982.42
2019-01-17T05:12:38.892Z,982.38
2019-01-17T05:13:41.497Z,982.37
2019-01-17T05:14:34.207Z,982.33
2019-01-17T05:15:36.735Z,982.33
2019-01-17T05:16:54.342Z,982.36
2019-01-17T05:17:33.819Z,982.38
2019-01-17T05:18:34.826Z,982.33
2019-01-17T05:19:34.831Z,982.30
2019-01-17T05:20:37.825Z,982.30
2019-01-17T05:21:39.479Z,982.33
2019-01-17T05:22:35.586Z,982.37
2019-01-17T05:23:33.804Z,982.38
2019-01-17T05:24:33.602Z,982.37
2019-01-17T05:25:35.206Z,982.37
2019-01-17T05:26:38.187Z,982.39
2019-01-17T05:27:44.879Z,982.34
2019-01-17T05:28:55.717Z,982.33
2019-01-17T05:29:34.510Z,982.27
2019-01-17T05:30:36.995Z,982.23
2019-01-17T05:31:39.029Z,982.26
2019-01-17T05:34:39.639Z,982.25
2019-01-17T05:35:35.278Z,982.26
2019-01-17T05:38:05.797Z,982.24
2019-01-17T05:38:54.867Z,982.23
2019-01-17T05:39:54.449Z,982.26
2019-01-17T05:40:47.913Z,982.17
2019-01-17T05:41:45.496Z,982.13
2019-01-17T05:43:05.527Z,982.17
2019-01-17T05:43:44.747Z,982.28
2019-01-17T05:44:52.035Z,982.26
2019-01-17T05:45:43.943Z,982.22
2019-01-17T05:46:51.638Z,982.22
2019-01-17T05:47:44.472Z,982.14
2019-01-17T05:50:16.915Z,982.12
2019-01-17T05:51:17.424Z,982.28
2019-01-17T05:52:16.155Z,982.25
2019-01-17T05:53:16.095Z,982.23
2019-01-17T05:54:15.564Z,982.21
2019-01-17T05:55:20.403Z,982.18
2019-01-17T05:56:18.437Z,981.98
2019-01-17T05:57:18.340Z,982.20
2019-01-17T05:58:15.772Z,982.26
2019-01-17T05:59:23.775Z,982.22
2019-01-17T06:00:19.623Z,982.24
2019-01-17T06:01:14.696Z,982.27
2019-01-17T06:02:14.670Z,982.25
2019-01-17T06:03:14.673Z,982.25
2019-01-17T06:04:14.646Z,982.30
2019-01-17T06:05:14.645Z,982.30
2019-01-17T06:06:14.646Z,982.37
2019-01-17T06:07:14.618Z,982.32
2019-01-17T06:08:14.652Z,982.39
2019-01-17T06:09:14.615Z,982.38
2019-01-17T06:10:14.581Z,982.33
2019-01-17T06:11:14.585Z,982.39
2019-01-17T06:12:14.582Z,982.34
2019-01-17T06:13:14.552Z,982.32
2019-01-17T06:14:14.547Z,982.33
2019-01-17T06:15:14.578Z,982.17
2019-01-17T06:16:14.535Z,982.41
2019-01-17T06:17:14.510Z,982.29
2019-01-17T06:18:14.496Z,982.34
2019-01-17T06:19:14.485Z,982.26
2019-01-17T06:20:14.516Z,982.31
2019-01-17T06:21:14.482Z,982.37
2019-01-17T06:22:14.454Z,982.32
2019-01-17T06:23:14.442Z,982.20
2019-01-17T06:24:14.433Z,982.29
2019-01-17T06:25:14.443Z,982.22
2019-01-17T06:26:14.461Z,982.27
2019-01-17T06:27:14.412Z,982.19
2019-01-17T06:28:14.388Z,982.23
2019-01-17T06:29:14.379Z,982.27
2019-01-17T06:30:14.397Z,982.19
2019-01-17T06:31:14.370Z,982.14
2019-01-17T06:32:14.344Z,982.16
2019-01-17T06:33:14.352Z,982.12
2019-01-17T06:34:14.333Z,982.12
2019-01-17T06:35:14.320Z,982.19
2019-01-17T06:36:14.326Z,982.12
2019-01-17T06:37:14.314Z,982.10
2019-01-17T06:38:14.289Z,982.14
2019-01-17T06:39:14.296Z,982.14
2019-01-17T06:40:14.326Z,982.12
2019-01-17T06:41:14.277Z,982.19
2019-01-17T06:42:14.241Z,982.14
2019-01-17T06:43:14.228Z,982.17
2019-01-17T06:44:20.107Z,982.04
2019-01-17T06:45:15.205Z,981.96
2019-01-17T06:46:14.209Z,982.00
2019-01-17T06:47:14.199Z,981.93
2019-01-17T06:48:14.222Z,981.96
2019-01-17T06:49:14.172Z,981.98
2019-01-17T06:50:14.151Z,981.96
2019-01-17T06:51:14.153Z,981.85
2019-01-17T06:52:14.324Z,981.86
2019-01-17T06:53:14.120Z,981.92
2019-01-17T06:54:14.106Z,981.92
2019-01-17T06:55:14.133Z,981.90
2019-01-17T06:56:14.090Z,981.89
2019-01-17T06:57:14.092Z,981.86
2019-01-17T06:58:14.064Z,981.89
2019-01-17T06:59:14.053Z,981.91
2019-01-17T07:00:14.043Z,981.89
2019-01-17T07:01:14.044Z,981.85
2019-01-17T07:02:14.036Z,981.79
2019-01-17T07:03:14.030Z,981.78
2019-01-17T07:04:14.001Z,981.70
2019-01-17T07:05:14.018Z,981.70
2019-01-17T07:06:13.979Z,981.77
2019-01-17T07:07:14.020Z,981.77
2019-01-17T07:08:13.986Z,981.66
2019-01-17T07:09:13.983Z,981.69
2019-01-17T07:10:13.938Z,981.66
2019-01-17T07:11:13.931Z,981.73
2019-01-17T07:12:14.036Z,981.76
2019-01-17T07:13:13.932Z,981.74
2019-01-17T07:14:13.910Z,981.71
2019-01-17T07:15:13.916Z,981.72
2019-01-17T07:16:13.872Z,981.73
2019-01-17T07:17:13.889Z,981.78
2019-01-17T07:18:13.851Z,981.70
2019-01-17T07:19:13.936Z,981.69
2019-01-17T07:20:13.830Z,981.75
2019-01-17T07:21:13.847Z,981.72
2019-01-17T07:22:13.941Z,981.74
2019-01-17T07:23:14.353Z,981.76
2019-01-17T07:24:13.840Z,981.68
2019-01-17T07:25:13.831Z,981.73
2019-01-17T07:26:13.766Z,981.69
2019-01-17T07:27:13.767Z,981.74
2019-01-17T07:28:13.766Z,981.72
2019-01-17T07:29:13.733Z,981.80
2019-01-17T07:30:13.787Z,981.83
2019-01-17T07:31:13.711Z,981.81
2019-01-17T07:32:13.727Z,981.81
2019-01-17T07:33:13.694Z,981.89
2019-01-17T07:34:13.759Z,981.91
2019-01-17T07:35:13.668Z,981.88
2019-01-17T07:36:13.660Z,981.94
2019-01-17T07:37:13.667Z,981.96
2019-01-17T07:38:13.650Z,981.93
2019-01-17T07:39:13.669Z,981.93
2019-01-17T07:40:13.643Z,981.95
2019-01-17T07:41:13.664Z,981.90
2019-01-17T07:42:13.623Z,981.89
2019-01-17T07:43:13.623Z,981.96
2019-01-17T07:44:13.570Z,981.97
2019-01-17T07:45:13.610Z,981.97
2019-01-17T07:46:13.592Z,982.07
2019-01-17T07:47:13.540Z,982.02
2019-01-17T07:48:13.558Z,981.99
2019-01-17T07:49:13.540Z,982.02
2019-01-17T07:50:13.536Z,982.00
2019-01-17T07:51:13.525Z,982.07
2019-01-17T07:52:13.498Z,982.04
2019-01-17T07:53:13.499Z,982.10
2019-01-17T07:54:13.481Z,982.08
2019-01-17T07:55:13.451Z,982.07
2019-01-17T07:56:13.452Z,982.11
2019-01-17T07:57:13.493Z,982.07
2019-01-17T07:58:13.434Z,982.10
2019-01-17T07:59:13.419Z,982.12
2019-01-17T08:00:13.401Z,982.10
2019-01-17T08:01:15.049Z,982.20
2019-01-17T08:02:13.401Z,982.12
2019-01-17T08:03:13.401Z,982.13
2019-01-17T08:04:13.353Z,982.15
2019-01-17T08:05:13.373Z,982.18
2019-01-17T08:06:13.338Z,982.17
2019-01-17T08:07:13.338Z,982.23
2019-01-17T08:08:13.365Z,982.16
2019-01-17T08:09:13.345Z,982.20
2019-01-17T08:10:13.314Z,982.23
2019-01-17T08:11:13.384Z,982.19
2019-01-17T08:12:13.354Z,982.18
2019-01-17T08:13:13.271Z,982.17
2019-01-17T08:14:13.298Z,982.23
2019-01-17T08:15:13.233Z,982.21
2019-01-17T08:16:13.240Z,982.20
2019-01-17T08:17:13.225Z,982.22
2019-01-17T08:18:18.610Z,982.23
2019-01-17T08:19:14.231Z,982.22
2019-01-17T08:20:13.179Z,982.23
2019-01-17T08:21:13.169Z,982.28
2019-01-17T08:22:13.172Z,982.23
2019-01-17T08:23:13.165Z,982.27
2019-01-17T08:24:13.168Z,982.30
2019-01-17T08:25:13.130Z,982.31
2019-01-17T08:26:13.170Z,982.40
2019-01-17T08:27:13.174Z,982.39
2019-01-17T08:28:13.094Z,982.40
2019-01-17T08:29:13.101Z,982.45
2019-01-17T08:30:13.070Z,982.45
2019-01-17T08:31:13.138Z,982.43
2019-01-17T08:32:13.046Z,982.50
2019-01-17T08:33:13.071Z,982.53
2019-01-17T08:34:13.071Z,982.46
2019-01-17T08:35:13.022Z,982.55
2019-01-17T08:36:13.012Z,982.58
2019-01-17T08:37:12.997Z,982.59
2019-01-17T08:38:13.013Z,982.60
2019-01-17T08:39:13.008Z,982.62
2019-01-17T08:40:13.022Z,982.59
2019-01-17T08:41:12.957Z,982.63
2019-01-17T08:42:12.954Z,982.61
2019-01-17T08:43:13.017Z,982.65
2019-01-17T08:44:12.931Z,982.57
2019-01-17T08:45:12.922Z,982.64
2019-01-17T08:46:12.897Z,982.58
2019-01-17T08:47:12.948Z,982.63
2019-01-17T08:48:12.894Z,982.65
2019-01-17T08:49:12.883Z,982.62
2019-01-17T08:50:12.851Z,982.60
2019-01-17T08:51:12.899Z,982.69
2019-01-17T08:52:12.829Z,982.60
2019-01-17T08:53:12.845Z,982.73
2019-01-17T08:54:12.840Z,982.56
2019-01-17T08:55:12.818Z,982.55
2019-01-17T08:56:12.786Z,982.67
2019-01-17T08:57:12.776Z,982.67
2019-01-17T08:58:12.773Z,982.68
2019-01-17T08:59:12.817Z,982.74
2019-01-17T09:00:12.743Z,982.79
2019-01-17T09:01:12.741Z,982.77
2019-01-17T09:02:12.751Z,982.82
2019-01-17T09:03:12.746Z,982.78
2019-01-17T09:04:12.752Z,982.81
2019-01-17T09:05:12.708Z,982.86
2019-01-17T09:06:12.694Z,982.93
2019-01-17T09:07:12.750Z,982.91
2019-01-17T09:08:12.690Z,982.98
2019-01-17T09:09:12.653Z,982.97
2019-01-17T09:10:12.647Z,982.97
2019-01-17T09:11:12.631Z,982.98
2019-01-17T09:12:12.634Z,983.01
2019-01-17T09:13:12.601Z,982.98
2019-01-17T09:14:12.637Z,983.01
2019-01-17T09:15:12.614Z,983.02
2019-01-17T09:16:12.624Z,982.95
2019-01-17T09:17:12.574Z,982.98
2019-01-17T09:18:12.566Z,983.05
2019-01-17T09:19:12.573Z,983.11
2019-01-17T09:20:12.575Z,983.18
2019-01-17T09:21:12.511Z,983.15
2019-01-17T09:22:12.510Z,983.14
2019-01-17T09:23:12.494Z,983.17
2019-01-17T09:24:12.479Z,983.20
2019-01-17T09:25:12.491Z,983.14
2019-01-17T09:26:12.457Z,983.05
2019-01-17T09:27:12.472Z,983.15
2019-01-17T09:28:12.438Z,983.23
2019-01-17T09:29:12.426Z,983.23
2019-01-17T09:30:12.441Z,983.14
2019-01-17T09:31:12.413Z,983.21
2019-01-17T09:32:12.393Z,983.22
2019-01-17T09:33:12.403Z,983.22
2019-01-17T09:34:12.378Z,983.19
2019-01-17T09:35:12.388Z,983.29
2019-01-17T09:36:12.348Z,983.27
2019-01-17T09:37:12.373Z,983.27
2019-01-17T09:38:12.356Z,983.33
2019-01-17T09:39:12.353Z,983.31
2019-01-17T09:40:12.349Z,983.28
2019-01-17T09:41:12.332Z,983.31
2019-01-17T09:42:12.334Z,983.35
2019-01-17T09:43:12.295Z,983.32
2019-01-17T09:44:12.282Z,983.35
2019-01-17T09:45:12.278Z,983.46
2019-01-17T09:46:12.239Z,983.39
2019-01-17T09:47:12.282Z,983.46
2019-01-17T09:48:12.240Z,983.43
2019-01-17T09:49:12.238Z,983.48
2019-01-17T09:50:12.278Z,983.53
2019-01-17T09:51:12.213Z,983.52
2019-01-17T09:52:12.174Z,983.43
2019-01-17T09:53:12.163Z,983.43
2019-01-17T09:54:12.151Z,983.46
2019-01-17T09:55:12.174Z,983.45
2019-01-17T09:56:14.916Z,983.45
2019-01-17T09:57:12.145Z,983.45
2019-01-17T09:58:12.124Z,983.42
2019-01-17T09:59:12.098Z,983.49
2019-01-17T10:00:12.174Z,983.45
2019-01-17T10:01:12.155Z,983.48
2019-01-17T10:02:12.085Z,983.47
2019-01-17T10:03:12.146Z,983.47
2019-01-17T10:04:12.055Z,983.46
2019-01-17T10:05:12.053Z,983.45
2019-01-17T10:06:12.096Z,983.42
2019-01-17T10:07:12.108Z,983.46
2019-01-17T10:08:12.031Z,983.53
2019-01-17T10:09:12.007Z,983.53
2019-01-17T10:10:11.990Z,983.49
2019-01-17T10:11:12.017Z,983.52
2019-01-17T10:12:11.960Z,983.53
2019-01-17T10:13:11.951Z,983.56
2019-01-17T10:14:11.973Z,983.55
2019-01-17T10:15:11.933Z,983.57
2019-01-17T10:16:12.439Z,983.47
2019-01-17T10:17:11.958Z,983.54
2019-01-17T10:18:11.932Z,983.50
2019-01-17T10:19:11.883Z,983.52
2019-01-17T10:20:11.910Z,983.50
2019-01-17T10:21:11.885Z,983.50
2019-01-17T10:22:11.853Z,983.53
2019-01-17T10:23:11.842Z,983.55
2019-01-17T10:24:11.829Z,983.49
2019-01-17T10:25:11.823Z,983.46
2019-01-17T10:26:11.825Z,983.54
2019-01-17T10:27:11.816Z,983.48
2019-01-17T10:28:11.803Z,983.42
2019-01-17T10:29:11.777Z,983.50
2019-01-17T10:30:11.813Z,983.46
2019-01-17T10:31:11.838Z,983.47
2019-01-17T10:32:11.753Z,983.52
2019-01-17T10:33:11.786Z,983.51
2019-01-17T10:34:11.786Z,983.48
2019-01-17T10:35:14.328Z,983.53
2019-01-17T10:36:11.858Z,983.52
2019-01-17T10:37:11.718Z,983.52
2019-01-17T10:38:11.763Z,983.51
2019-01-17T10:39:11.690Z,983.48
2019-01-17T10:40:11.683Z,983.45
2019-01-17T10:41:11.718Z,983.48
2019-01-17T10:42:11.637Z,983.41
2019-01-17T10:43:11.625Z,983.46
2019-01-17T10:44:11.621Z,983.46
2019-01-17T10:45:11.645Z,983.41
2019-01-17T10:46:11.632Z,983.47
2019-01-17T10:47:11.584Z,983.46
2019-01-17T10:48:11.601Z,983.45
2019-01-17T10:49:11.562Z,983.42
2019-01-17T10:50:11.550Z,983.45
2019-01-17T10:51:11.569Z,983.47
2019-01-17T10:52:11.530Z,983.40
2019-01-17T10:53:11.566Z,983.42
2019-01-17T10:54:11.539Z,983.35
2019-01-17T10:55:11.540Z,983.41
2019-01-17T10:56:11.506Z,983.47
2019-01-17T10:57:11.515Z,983.43
2019-01-17T10:58:11.476Z,983.42
2019-01-17T10:59:11.511Z,983.44
2019-01-17T11:00:11.443Z,983.41
2019-01-17T11:01:11.440Z,983.40
2019-01-17T11:02:11.894Z,983.48
2019-01-17T11:03:11.411Z,983.48
2019-01-17T11:04:11.400Z,983.29
2019-01-17T11:05:11.472Z,983.40
2019-01-17T11:06:11.468Z,983.46
2019-01-17T11:07:11.411Z,983.42
2019-01-17T11:08:11.357Z,983.40
2019-01-17T11:09:11.350Z,983.43
2019-01-17T11:10:11.386Z,983.41
2019-01-17T11:11:11.341Z,983.37
2019-01-17T11:12:11.387Z,983.40
2019-01-17T11:13:11.321Z,983.36
2019-01-17T11:14:11.303Z,983.31
2019-01-17T11:15:11.312Z,983.27
2019-01-17T11:16:11.341Z,983.32
2019-01-17T11:17:11.425Z,983.26
2019-01-17T11:18:11.251Z,983.31
2019-01-17T11:19:11.333Z,983.23
2019-01-17T11:20:11.229Z,983.30
2019-01-17T11:21:11.260Z,983.33
2019-01-17T11:22:11.222Z,983.37
2019-01-17T11:23:11.812Z,983.34
2019-01-17T11:24:11.234Z,983.38
2019-01-17T11:25:11.189Z,983.36
2019-01-17T11:26:11.214Z,983.39
2019-01-17T11:27:11.246Z,983.40
2019-01-17T11:28:11.159Z,983.35
2019-01-17T11:29:11.134Z,983.31
2019-01-17T11:30:11.133Z,983.37
2019-01-17T11:31:11.112Z,983.32
2019-01-17T11:32:11.113Z,983.35
2019-01-17T11:33:11.132Z,983.40
2019-01-17T11:34:11.084Z,983.39
2019-01-17T11:35:11.067Z,983.33
2019-01-17T11:36:11.144Z,983.27
2019-01-17T11:37:11.095Z,983.26
2019-01-17T11:38:11.034Z,983.23
2019-01-17T11:39:11.026Z,983.22
2019-01-17T11:40:11.012Z,983.25
2019-01-17T11:41:11.001Z,983.15
2019-01-17T11:42:11.021Z,983.22
2019-01-17T11:43:11.012Z,983.21
2019-01-17T11:44:11.028Z,983.15
2019-01-17T11:45:11.002Z,983.19
2019-01-17T11:46:10.975Z,983.16
2019-01-17T11:47:10.937Z,983.22
2019-01-17T11:48:10.952Z,983.18
2019-01-17T11:49:10.984Z,983.18
2019-01-17T11:50:10.919Z,983.12
2019-01-17T11:51:11.063Z,983.18
2019-01-17T11:52:10.934Z,983.13
2019-01-17T11:53:10.988Z,983.09
2019-01-17T11:54:10.886Z,983.10
2019-01-17T11:55:10.859Z,983.09
2019-01-17T11:56:10.893Z,983.07
2019-01-17T11:57:10.915Z,983.02
2019-01-17T11:58:10.906Z,983.06
2019-01-17T11:59:11.325Z,982.95
2019-01-17T12:00:10.824Z,983.04
2019-01-17T12:01:10.787Z,983.04
2019-01-17T12:02:10.813Z,983.06
2019-01-17T12:03:10.792Z,983.00
2019-01-17T12:04:10.753Z,983.07
2019-01-17T12:05:10.769Z,983.06
2019-01-17T12:06:10.761Z,983.11
2019-01-17T12:07:10.725Z,983.09
2019-01-17T12:08:10.817Z,983.07
2019-01-17T12:09:10.700Z,983.05
2019-01-17T12:10:10.729Z,983.08
2019-01-17T12:11:10.674Z,983.09
2019-01-17T12:12:10.727Z,983.08
2019-01-17T12:13:10.710Z,983.16
2019-01-17T12:14:10.685Z,983.09
2019-01-17T12:15:10.662Z,983.11
2019-01-17T12:16:10.620Z,982.95
2019-01-17T12:17:10.609Z,983.04
2019-01-17T12:18:10.699Z,983.07
2019-01-17T12:19:10.606Z,983.08
2019-01-17T12:20:10.580Z,983.14
2019-01-17T12:21:10.566Z,983.07
2019-01-17T12:22:10.593Z,983.13
2019-01-17T12:23:10.560Z,983.06
2019-01-17T12:24:10.534Z,983.08
2019-01-17T12:25:10.585Z,983.16
2019-01-17T12:26:10.536Z,983.12
2019-01-17T12:27:10.510Z,983.11
2019-01-17T12:28:10.870Z,982.99
2019-01-17T12:29:10.516Z,983.05
2019-01-17T12:30:10.515Z,983.10
2019-01-17T12:31:10.459Z,983.12
2019-01-17T12:32:10.485Z,983.16
2019-01-17T12:33:10.484Z,983.05
2019-01-17T12:34:10.475Z,983.11